Time;durP1;ratioP1;P1;durP2;ratioP2;P2;SDS_P1;SDS_P2;PMS_P1;PMS_P2;Temp;Humidity;BMP_temperature;BMP_pressure;BME280_temperature;BME280_humidity;BME280_pressure;Samples;Min_cycle;Max_cycle;Signal;HPM_P1;HPM_P2
2023/07/24 00:01:49;;;;;;;8.05;2.70;;;17.60;99.90;;;;;;6246850;23;20172;-93
2023/07/24 00:04:16;;;;;;;5.20;3.03;;;17.60;99.90;;;;;;6246822;23;20215;-92
2023/07/24 00:06:43;;;;;;;3.65;3.03;;;17.60;99.90;;;;;;6246400;23;20203;-94
2023/07/24 00:09:11;;;;;;;4.20;2.70;;;17.50;99.90;;;;;;6246909;23;20191;-94
2023/07/24 00:11:38;;;;;;;4.68;3.22;;;17.50;99.90;;;;;;6246348;23;20185;-93
2023/07/24 00:14:05;;;;;;;4.75;3.05;;;17.50;1.00;;;;;;6246943;23;20251;-93
2023/07/24 00:16:31;;;;;;;4.10;2.90;;;17.50;1.00;;;;;;6246366;23;20662;-93
2023/07/24 00:18:58;;;;;;;8.38;2.88;;;17.50;1.00;;;;;;6247483;23;20168;-94
2023/07/24 00:21:25;;;;;;;5.30;3.00;;;17.50;1.00;;;;;;6247217;23;20252;-93
2023/07/24 00:23:54;;;;;;;4.88;2.50;;;17.50;1.00;;;;;;6246495;23;20185;-93
2023/07/24 00:26:22;;;;;;;6.45;2.80;;;17.50;1.00;;;;;;6246851;23;20634;-93
2023/07/24 00:28:49;;;;;;;7.18;2.78;;;17.60;1.00;;;;;;6246495;23;20210;-92
2023/07/24 00:31:16;;;;;;;4.47;3.00;;;17.50;1.00;;;;;;6246695;23;20204;-93
2023/07/24 00:33:43;;;;;;;4.13;2.70;;;17.60;1.00;;;;;;6246293;23;20168;-93
2023/07/24 00:36:10;;;;;;;5.60;3.05;;;17.60;1.00;;;;;;6246889;23;20669;-93
2023/07/24 00:38:37;;;;;;;3.42;2.65;;;17.60;1.00;;;;;;6246013;23;20547;-93
2023/07/24 00:41:04;;;;;;;3.63;2.92;;;17.60;1.00;;;;;;6246886;23;20179;-93
2023/07/24 00:43:32;;;;;;;5.57;3.22;;;17.60;1.00;;;;;;6246539;23;20650;-94
2023/07/24 00:45:59;;;;;;;6.50;3.13;;;17.60;1.00;;;;;;6246351;23;20252;-93
2023/07/24 00:48:26;;;;;;;3.58;2.72;;;17.60;1.00;;;;;;6246292;23;20172;-94
2023/07/24 00:50:53;;;;;;;6.07;3.00;;;17.60;1.00;;;;;;6246620;23;20160;-92
2023/07/24 00:53:20;;;;;;;6.65;2.95;;;17.60;1.00;;;;;;6246490;23;20322;-92
2023/07/24 00:55:48;;;;;;;4.28;2.90;;;17.70;1.00;;;;;;6246619;23;20243;-93
2023/07/24 00:58:17;;;;;;;5.35;3.20;;;17.60;1.00;;;;;;6246664;23;20175;-91
2023/07/24 01:00:45;;;;;;;6.03;2.90;;;17.60;1.00;;;;;;6246503;23;20684;-92
2023/07/24 01:03:13;;;;;;;6.05;2.67;;;17.70;1.00;;;;;;6246789;23;20175;-94
2023/07/24 01:05:40;;;;;;;4.43;2.90;;;17.70;1.00;;;;;;6246121;23;20196;-92
2023/07/24 01:08:07;;;;;;;5.43;3.17;;;17.80;1.00;;;;;;6246995;23;20537;-92
2023/07/24 01:10:34;;;;;;;4.43;2.95;;;17.80;1.00;;;;;;6245817;23;20750;-93
2023/07/24 01:13:08;;;;;;;4.28;3.28;;;17.90;1.00;;;;;;6246686;23;20567;-93
2023/07/24 01:15:39;;;;;;;4.68;3.05;;;18.00;1.00;;;;;;6246563;23;20172;-94
2023/07/24 01:18:10;;;;;;;5.85;2.83;;;18.00;1.00;;;;;;6246051;23;20235;-94
2023/07/24 01:20:40;;;;;;;4.80;2.55;;;18.10;1.00;;;;;;6246767;23;20199;-93
2023/07/24 01:23:23;;;;;;;3.88;2.67;;;18.20;1.00;;;;;;6247543;23;20156;-93
2023/07/24 01:26:03;;;;;;;3.92;2.80;;;18.20;1.00;;;;;;6248570;23;20228;-93
2023/07/24 01:28:29;;;;;;;5.95;2.60;;;18.30;1.00;;;;;;6248816;23;20164;-93
2023/07/24 01:30:58;;;;;;;4.68;2.65;;;18.30;1.00;;;;;;6248853;23;20255;-95
2023/07/24 01:33:25;;;;;;;4.00;2.53;;;18.40;1.00;;;;;;6249237;23;20242;-91
2023/07/24 01:35:55;;;;;;;3.97;2.50;;;18.40;1.00;;;;;;6248705;23;20550;-92
2023/07/24 01:38:24;;;;;;;3.35;2.50;;;18.40;1.00;;;;;;6249147;23;20599;-92
2023/07/24 01:40:52;;;;;;;5.65;2.70;;;18.40;1.00;;;;;;6247983;23;20578;-92
2023/07/24 01:43:20;;;;;;;7.65;2.55;;;18.50;1.00;;;;;;6248523;23;20170;-92
2023/07/24 01:45:47;;;;;;;5.57;2.53;;;18.50;1.00;;;;;;6248226;23;20596;-93
2023/07/24 01:48:14;;;;;;;7.57;2.95;;;18.50;1.00;;;;;;6248366;23;20210;-93
2023/07/24 01:50:41;;;;;;;3.80;2.60;;;18.50;99.90;;;;;;6248424;23;20557;-92
2023/07/24 01:53:08;;;;;;;3.83;2.90;;;18.50;99.90;;;;;;6248524;23;20169;-94
2023/07/24 01:55:35;;;;;;;3.40;2.60;;;18.60;99.90;;;;;;6247863;23;20237;-92
2023/07/24 01:58:01;;;;;;;3.90;2.40;;;18.60;99.90;;;;;;6247466;23;20270;-92
2023/07/24 02:00:29;;;;;;;3.20;2.60;;;18.60;99.90;;;;;;6248407;22;20283;-93
2023/07/24 02:02:56;;;;;;;3.13;2.38;;;18.60;99.90;;;;;;6248745;23;20253;-93
2023/07/24 02:05:23;;;;;;;5.45;2.67;;;18.60;99.90;;;;;;6248112;23;20248;-92
2023/07/24 02:07:50;;;;;;;5.05;2.67;;;18.60;99.90;;;;;;6248019;23;20175;-92
2023/07/24 02:10:17;;;;;;;3.75;2.80;;;18.60;99.90;;;;;;6248508;23;20200;-93
2023/07/24 02:12:44;;;;;;;4.63;2.80;;;18.60;99.90;;;;;;6247947;23;20657;-93
2023/07/24 02:15:11;;;;;;;5.65;2.38;;;18.60;99.90;;;;;;6248733;23;20558;-93
2023/07/24 02:17:39;;;;;;;3.05;2.40;;;18.60;99.90;;;;;;6248524;23;20191;-94
2023/07/24 02:20:07;;;;;;;6.00;2.70;;;18.70;99.90;;;;;;6248749;23;20172;-93
2023/07/24 02:22:34;;;;;;;5.07;3.00;;;18.60;99.90;;;;;;6248281;23;20611;-94
2023/07/24 02:25:01;;;;;;;3.55;2.60;;;18.70;99.90;;;;;;6248282;23;20227;-92
2023/07/24 02:27:30;;;;;;;2.80;2.30;;;18.70;99.90;;;;;;6247881;23;20196;-94
2023/07/24 02:29:58;;;;;;;2.85;2.50;;;18.80;99.90;;;;;;6247360;23;21024;-93
2023/07/24 02:32:24;;;;;;;3.05;2.33;;;18.80;99.90;;;;;;6248090;23;20251;-92
2023/07/24 02:34:53;;;;;;;4.82;2.50;;;18.80;99.90;;;;;;6247585;23;20199;-94
2023/07/24 02:37:20;;;;;;;5.18;2.60;;;18.80;99.90;;;;;;6247491;23;20635;-92
2023/07/24 02:39:47;;;;;;;3.35;2.65;;;18.90;99.90;;;;;;6247930;23;20172;-93
2023/07/24 02:42:14;;;;;;;5.07;2.70;;;18.90;99.90;;;;;;6248149;23;20615;-94
2023/07/24 02:44:41;;;;;;;4.70;2.70;;;18.90;99.90;;;;;;6247916;23;20204;-93
2023/07/24 02:47:08;;;;;;;3.90;2.58;;;18.90;99.90;;;;;;6247150;23;20625;-94
2023/07/24 02:49:35;;;;;;;5.40;2.95;;;18.90;99.90;;;;;;6248123;23;20172;-94
2023/07/24 02:52:03;;;;;;;3.78;2.70;;;18.90;99.90;;;;;;6248437;23;20223;-94
2023/07/24 02:54:30;;;;;;;3.60;2.40;;;18.90;99.90;;;;;;6247600;23;20172;-93
2023/07/24 02:56:57;;;;;;;3.53;2.80;;;18.90;1.00;;;;;;6247508;23;20177;-93
2023/07/24 02:59:24;;;;;;;5.07;2.78;;;18.90;1.00;;;;;;6246784;22;20761;-92
2023/07/24 03:01:51;;;;;;;3.92;2.80;;;18.90;1.00;;;;;;6247852;23;20174;-93
2023/07/24 03:04:18;;;;;;;4.85;3.05;;;19.00;1.00;;;;;;6247760;23;20242;-93
2023/07/24 03:06:45;;;;;;;3.15;2.85;;;18.90;1.00;;;;;;6247891;23;20175;-92
2023/07/24 03:09:13;;;;;;;3.90;2.78;;;18.90;1.00;;;;;;6247978;23;20175;-93
2023/07/24 03:11:40;;;;;;;4.88;2.85;;;18.90;1.00;;;;;;6247254;23;20195;-92
2023/07/24 03:14:06;;;;;;;3.95;2.55;;;18.90;1.00;;;;;;6247933;23;20259;-93
2023/07/24 03:16:33;;;;;;;4.35;2.60;;;18.90;1.00;;;;;;6247732;23;20555;-93
2023/07/24 03:19:00;;;;;;;3.90;2.92;;;18.90;1.00;;;;;;6248272;23;20198;-92
2023/07/24 03:21:27;;;;;;;3.10;2.47;;;18.90;1.00;;;;;;6247589;23;20199;-92
2023/07/24 03:23:54;;;;;;;3.42;2.78;;;18.90;99.90;;;;;;6247381;23;20208;-93
2023/07/24 03:26:22;;;;;;;3.30;2.80;;;19.00;99.90;;;;;;6247127;23;20191;-94
2023/07/24 03:28:49;;;;;;;4.03;2.65;;;18.90;99.90;;;;;;6247894;23;20179;-94
2023/07/24 03:31:16;;;;;;;2.88;2.38;;;18.90;99.90;;;;;;6248046;23;20244;-93
2023/07/24 03:33:43;;;;;;;5.00;2.80;;;18.90;99.90;;;;;;6247440;23;20179;-93
2023/07/24 03:36:09;;;;;;;7.90;2.88;;;18.90;99.90;;;;;;6247388;23;20164;-93
2023/07/24 03:38:36;;;;;;;4.65;2.92;;;18.90;99.90;;;;;;6247472;23;20207;-95
2023/07/24 03:41:03;;;;;;;5.63;2.92;;;19.00;99.90;;;;;;6247653;23;20204;-93
2023/07/24 03:43:31;;;;;;;3.92;2.83;;;19.00;99.90;;;;;;6246926;23;20196;-93
2023/07/24 03:45:58;;;;;;;3.75;2.50;;;19.00;99.90;;;;;;6247734;23;20237;-94
2023/07/24 03:48:25;;;;;;;4.93;2.65;;;19.10;99.90;;;;;;6247414;23;20183;-94
2023/07/24 03:51:00;;;;;;;4.35;2.60;;;19.20;99.90;;;;;;6247563;23;20768;-93
2023/07/24 03:53:27;;;;;;;4.68;3.15;;;19.20;94.50;;;;;;6247926;23;20156;-93
2023/07/24 03:55:54;;;;;;;3.33;2.72;;;19.20;78.10;;;;;;6247582;23;20252;-92
2023/07/24 03:58:21;;;;;;;6.13;3.22;;;19.20;11.30;;;;;;6247618;23;20169;-93
2023/07/24 04:00:49;;;;;;;5.07;2.58;;;19.30;1.00;;;;;;6247197;22;20202;-94
2023/07/24 04:03:17;;;;;;;5.22;3.53;;;19.40;1.00;;;;;;6246659;23;20634;-94
2023/07/24 04:05:43;;;;;;;3.90;2.80;;;19.50;1.00;;;;;;6246502;23;20189;-94
2023/07/24 04:08:10;;;;;;;6.25;3.03;;;19.50;1.00;;;;;;6246995;23;20183;-93
2023/07/24 04:10:37;;;;;;;7.13;3.20;;;19.60;1.00;;;;;;6246630;23;20267;-95
2023/07/24 04:13:04;;;;;;;4.43;3.10;;;19.60;1.00;;;;;;6246892;23;20251;-95
2023/07/24 04:15:31;;;;;;;3.60;2.88;;;19.70;1.00;;;;;;6246922;23;20165;-94
2023/07/24 04:17:59;;;;;;;4.68;2.78;;;19.70;1.00;;;;;;6246634;23;20247;-95
2023/07/24 04:20:26;;;;;;;4.40;2.88;;;19.80;1.00;;;;;;6247140;23;20203;-93
2023/07/24 04:22:53;;;;;;;6.65;2.80;;;19.80;1.00;;;;;;6246745;23;20548;-94
2023/07/24 04:25:20;;;;;;;3.83;2.80;;;19.80;1.00;;;;;;6246460;23;20188;-94
2023/07/24 04:27:46;;;;;;;5.03;3.45;;;19.90;1.00;;;;;;6247143;23;20175;-93
2023/07/24 04:30:13;;;;;;;8.40;3.63;;;19.90;1.00;;;;;;6247049;23;20248;-94
2023/07/24 04:32:40;;;;;;;6.22;3.10;;;19.90;1.00;;;;;;6246840;23;20255;-95
2023/07/24 04:35:09;;;;;;;4.38;3.13;;;20.00;99.90;;;;;;6246727;23;20160;-94
2023/07/24 04:37:36;;;;;;;3.95;3.10;;;20.10;99.90;;;;;;6246724;23;20220;-94
2023/07/24 04:40:03;;;;;;;7.18;3.45;;;20.20;99.90;;;;;;6246878;23;20179;-93
2023/07/24 04:42:30;;;;;;;6.25;3.50;;;20.20;99.90;;;;;;6246735;23;20204;-95
2023/07/24 04:44:57;;;;;;;7.68;3.20;;;20.30;99.90;;;;;;6246470;23;20267;-94
2023/07/24 04:47:23;;;;;;;5.10;3.00;;;20.40;99.90;;;;;;6246388;23;20255;-94
2023/07/24 04:49:50;;;;;;;3.75;2.72;;;20.60;76.80;;;;;;6246969;23;20794;-94
2023/07/24 04:52:18;;;;;;;4.18;3.10;;;20.70;1.00;;;;;;6246084;23;20259;-95
2023/07/24 04:54:45;;;;;;;9.23;2.97;;;20.90;1.00;;;;;;6247185;23;20256;-94
2023/07/24 04:57:12;;;;;;;5.10;3.20;;;21.10;1.00;;;;;;6246935;23;20215;-94
2023/07/24 04:59:39;;;;;;;10.05;3.53;;;21.20;1.00;;;;;;6246763;22;20199;-94
2023/07/24 05:02:06;;;;;;;8.02;3.70;;;21.20;1.00;;;;;;6246469;23;20255;-94
2023/07/24 05:04:33;;;;;;;8.52;3.30;;;21.20;1.00;;;;;;6246976;23;20562;-93
2023/07/24 05:07:00;;;;;;;7.28;3.65;;;21.20;1.00;;;;;;6247126;23;20203;-94
2023/07/24 05:09:28;;;;;;;4.70;3.50;;;21.10;1.00;;;;;;6246921;23;20713;-96
2023/07/24 05:11:55;;;;;;;5.57;2.92;;;21.10;1.00;;;;;;6247084;23;20251;-94
2023/07/24 05:14:21;;;;;;;5.95;2.95;;;21.10;1.00;;;;;;6247378;23;20219;-94
2023/07/24 05:16:48;;;;;;;7.95;3.40;;;21.10;1.00;;;;;;6247194;23;20247;-93
2023/07/24 05:19:15;;;;;;;7.07;3.33;;;21.10;1.00;;;;;;6246770;23;20172;-93
2023/07/24 05:21:42;;;;;;;3.70;2.88;;;21.20;1.00;;;;;;6246907;23;20206;-93
2023/07/24 05:24:08;;;;;;;5.10;2.80;;;21.20;1.00;;;;;;6247230;23;20203;-93
2023/07/24 05:26:37;;;;;;;5.63;3.00;;;21.40;1.00;;;;;;6246701;23;20195;-94
2023/07/24 05:29:04;;;;;;;4.85;3.30;;;21.60;1.00;;;;;;6246832;23;20200;-93
2023/07/24 05:31:30;;;;;;;6.50;3.35;;;21.80;99.90;;;;;;6246864;23;20218;-93
2023/07/24 05:33:57;;;;;;;4.20;3.03;;;22.00;99.90;;;;;;6247341;23;20175;-93
2023/07/24 05:36:24;;;;;;;4.82;3.30;;;22.10;99.90;;;;;;6246797;23;20244;-94
2023/07/24 05:38:52;;;;;;;8.35;3.63;;;22.30;99.90;;;;;;6246861;23;20615;-93
2023/07/24 05:41:19;;;;;;;7.47;3.33;;;22.30;60.00;;;;;;6247291;23;20215;-93
2023/07/24 05:43:47;;;;;;;4.10;3.00;;;22.30;3.20;;;;;;6246625;23;20622;-93
2023/07/24 05:46:14;;;;;;;6.38;3.85;;;22.40;1.00;;;;;;6246543;23;20736;-94
2023/07/24 05:48:41;;;;;;;5.28;3.20;;;22.40;1.00;;;;;;6247043;23;20200;-94
2023/07/24 05:51:08;;;;;;;5.28;3.20;;;22.60;1.00;;;;;;6246732;23;20653;-93
2023/07/24 05:53:35;;;;;;;4.97;3.13;;;22.80;1.00;;;;;;6246422;23;20165;-94
2023/07/24 05:56:04;;;;;;;6.10;3.00;;;23.00;1.00;;;;;;6246951;23;20199;-94
2023/07/24 05:58:31;;;;;;;5.47;2.60;;;23.20;1.00;;;;;;6246349;22;20213;-94
2023/07/24 06:00:59;;;;;;;3.30;2.50;;;23.40;1.00;;;;;;6247156;23;20174;-94
2023/07/24 06:03:26;;;;;;;4.85;2.80;;;23.60;1.00;;;;;;6246895;23;20199;-95
2023/07/24 06:05:53;;;;;;;3.95;2.30;;;23.70;1.00;;;;;;6246711;23;20246;-93
2023/07/24 06:08:20;;;;;;;3.88;2.50;;;23.80;1.00;;;;;;6246559;23;20188;-95
2023/07/24 06:10:48;;;;;;;3.65;2.65;;;24.00;1.00;;;;;;6247525;23;20172;-93
2023/07/24 06:13:15;;;;;;;97.30;26.75;;;24.20;1.00;;;;;;6248906;23;20173;-94
2023/07/24 06:15:42;;;;;;;5.43;2.92;;;24.30;99.90;;;;;;6248549;23;20247;-95
2023/07/24 06:18:11;;;;;;;6.60;3.00;;;24.30;99.90;;;;;;6248941;23;20168;-95
2023/07/24 06:20:40;;;;;;;6.07;2.50;;;24.50;99.90;;;;;;6248677;23;20208;-95
2023/07/24 06:23:07;;;;;;;3.83;2.45;;;24.70;99.90;;;;;;6248771;23;20226;-95
2023/07/24 06:25:34;;;;;;;14.10;7.00;;;25.10;99.90;;;;;;6248227;23;20216;-94
2023/07/24 06:28:01;;;;;;;8.93;4.22;;;25.40;99.90;;;;;;6248857;23;20172;-93
2023/07/24 06:30:28;;;;;;;12.43;5.55;;;25.70;99.90;;;;;;6248102;23;20221;-94
2023/07/24 06:32:55;;;;;;;7.88;4.25;;;25.90;99.90;;;;;;6248390;23;20247;-95
2023/07/24 06:35:23;;;;;;;3.42;1.77;;;25.80;99.90;;;;;;6248304;23;20175;-94
2023/07/24 06:37:50;;;;;;;20.48;10.02;;;25.60;99.90;;;;;;6248400;23;20199;-95
2023/07/24 06:40:17;;;;;;;4.43;2.33;;;25.50;99.90;;;;;;6248069;23;20630;-94
2023/07/24 06:42:43;;;;;;;13.07;7.40;;;25.50;99.90;;;;;;6247832;23;20223;-93
2023/07/24 06:45:10;;;;;;;2.30;1.90;;;25.60;99.90;;;;;;6247808;23;20557;-94
2023/07/24 06:47:37;;;;;;;2.17;1.58;;;25.50;99.90;;;;;;6248014;23;20200;-94
2023/07/24 06:50:05;;;;;;;3.33;1.40;;;25.60;99.90;;;;;;6247494;23;20175;-95
2023/07/24 06:52:34;;;;;;;2.28;1.90;;;25.60;99.90;;;;;;6248184;23;20173;-93
2023/07/24 06:55:00;;;;;;;3.50;2.10;;;25.40;99.90;;;;;;6247944;23;20175;-94
2023/07/24 06:57:27;;;;;;;2.55;1.80;;;25.20;99.90;;;;;;6247785;23;20247;-95
2023/07/24 06:59:54;;;;;;;22.58;10.02;;;25.10;99.90;;;;;;6247563;22;20203;-94
2023/07/24 07:02:21;;;;;;;7.72;4.22;;;25.00;99.90;;;;;;6248521;23;20251;-95
2023/07/24 07:04:48;;;;;;;39.88;15.77;;;25.00;99.90;;;;;;6248124;23;20169;-91
2023/07/24 07:07:14;;;;;;;13.02;5.63;;;25.10;99.90;;;;;;6248034;23;20199;-92
2023/07/24 07:09:43;;;;;;;7.40;3.75;;;25.40;99.90;;;;;;6248313;23;20172;-92
2023/07/24 07:12:09;;;;;;;2.22;1.30;;;25.50;99.90;;;;;;6248213;23;20199;-92
2023/07/24 07:14:36;;;;;;;2.25;1.50;;;25.80;99.90;;;;;;6248086;23;20562;-92
2023/07/24 07:17:03;;;;;;;2.47;1.23;;;26.10;99.90;;;;;;6247860;23;20397;-94
2023/07/24 07:19:30;;;;;;;5.70;2.17;;;26.10;99.90;;;;;;6247889;23;20247;-92
2023/07/24 07:21:57;;;;;;;4.53;2.22;;;26.10;99.90;;;;;;6247620;23;20164;-92
2023/07/24 07:24:24;;;;;;;5.55;1.98;;;25.90;99.90;;;;;;6247838;23;20251;-94
2023/07/24 07:26:52;;;;;;;3.67;1.70;;;25.70;99.90;;;;;;6247533;23;20677;-93
2023/07/24 07:29:19;;;;;;;5.28;3.10;;;25.60;99.90;;;;;;6248375;23;20203;-95
2023/07/24 07:31:46;;;;;;;7.82;3.22;;;25.60;99.90;;;;;;6247801;23;20169;-95
2023/07/24 07:34:12;;;;;;;2.20;1.80;;;25.80;99.90;;;;;;6247937;23;20160;-94
2023/07/24 07:36:39;;;;;;;20.70;11.55;;;26.10;99.90;;;;;;6247866;23;20505;-95
2023/07/24 07:39:06;;;;;;;3.53;2.30;;;26.20;99.90;;;;;;6248106;23;20168;-94
2023/07/24 07:41:33;;;;;;;13.45;8.57;;;26.30;99.90;;;;;;6247605;23;20638;-94
2023/07/24 07:44:01;;;;;;;9.40;6.25;;;26.40;99.90;;;;;;6247892;23;20251;-95
2023/07/24 07:46:28;;;;;;;4.82;3.53;;;26.50;99.90;;;;;;6247823;23;20188;-94
2023/07/24 07:48:54;;;;;;;4.88;1.98;;;26.50;91.80;;;;;;6247723;23;20182;-94
2023/07/24 07:51:24;;;;;;;3.58;2.47;;;26.40;99.90;;;;;;6247858;23;20200;-94
2023/07/24 07:53:50;;;;;;;9.57;5.38;;;26.50;99.90;;;;;;6247252;23;20550;-95
2023/07/24 07:56:17;;;;;;;3.65;2.60;;;26.60;72.60;;;;;;6247563;23;20195;-95
2023/07/24 07:58:44;;;;;;;7.88;3.65;;;26.60;59.50;;;;;;6247625;22;20176;-96
2023/07/24 08:01:12;;;;;;;4.00;2.63;;;26.60;52.00;;;;;;6247313;23;20695;-93
2023/07/24 08:03:39;;;;;;;1.90;1.35;;;26.60;36.60;;;;;;6247350;23;20722;-94
2023/07/24 08:06:06;;;;;;;3.22;2.42;;;26.50;28.80;;;;;;6247230;23;20180;-92
2023/07/24 08:08:33;;;;;;;2.45;1.85;;;26.40;21.10;;;;;;6247815;23;20172;-92
2023/07/24 08:11:05;;;;;;;2.55;1.88;;;26.40;50.10;;;;;;6247373;23;20250;-95
2023/07/24 08:13:32;;;;;;;2.45;1.35;;;26.40;22.20;;;;;;6247363;23;20145;-95
2023/07/24 08:15:59;;;;;;;5.10;2.33;;;26.40;19.00;;;;;;6247402;23;20224;-95
2023/07/24 08:18:27;;;;;;;1.67;1.40;;;26.30;1.70;;;;;;6247444;23;20164;-96
2023/07/24 08:20:54;;;;;;;4.07;2.15;;;26.00;9.70;;;;;;6247147;23;20192;-93
2023/07/24 08:23:21;;;;;;;3.72;2.40;;;25.90;18.70;;;;;;6247893;23;20196;-94
2023/07/24 08:25:54;;;;;;;1.40;1.30;;;25.90;1.00;;;;;;6247386;23;20247;-94
2023/07/24 08:28:21;;;;;;;2.78;1.75;;;25.70;36.70;;;;;;6247425;23;20251;-91
2023/07/24 08:30:56;;;;;;;3.15;2.40;;;25.90;67.50;;;;;;6247387;23;20506;-92
2023/07/24 08:33:23;;;;;;;4.15;2.20;;;26.20;52.30;;;;;;6246944;23;20184;-92
2023/07/24 08:36:00;;;;;;;1.60;1.40;;;26.30;23.70;;;;;;6234870;23;20199;-94
2023/07/24 08:38:27;;;;;;;8.57;2.80;;;26.30;1.00;;;;;;6247144;23;20205;-92
2023/07/24 08:41:01;;;;;;;1.45;1.30;;;26.30;1.00;;;;;;6247116;23;20713;-92
2023/07/24 08:43:30;;;;;;;10.40;1.80;;;26.30;1.00;;;;;;6247509;23;20144;-92
2023/07/24 08:45:58;;;;;;;2.13;1.42;;;26.30;1.00;;;;;;6247257;23;20227;-91
2023/07/24 08:48:25;;;;;;;3.83;2.38;;;26.30;1.00;;;;;;6247175;23;20251;-93
2023/07/24 08:50:53;;;;;;;1.65;1.48;;;26.20;1.00;;;;;;6247469;23;20255;-92
2023/07/24 08:53:22;;;;;;;2.10;1.52;;;26.30;1.00;;;;;;6246728;23;20164;-92
2023/07/24 08:55:50;;;;;;;2.17;1.60;;;26.40;1.00;;;;;;6246912;23;20183;-92
2023/07/24 08:58:17;;;;;;;4.28;1.88;;;26.50;1.00;;;;;;6247148;23;20191;-93
2023/07/24 09:00:44;;;;;;;2.28;1.40;;;26.60;1.00;;;;;;6246622;22;20188;-92
2023/07/24 09:03:11;;;;;;;4.50;1.42;;;26.90;1.00;;;;;;6246979;23;20725;-92
2023/07/24 09:05:38;;;;;;;1.80;1.50;;;27.10;1.00;;;;;;6247066;23;20243;-92
2023/07/24 09:08:05;;;;;;;1.80;1.60;;;27.10;1.00;;;;;;6246609;23;20243;-91
2023/07/24 09:10:33;;;;;;;2.65;1.77;;;27.20;1.00;;;;;;6247224;23;20172;-93
2023/07/24 09:13:03;;;;;;;2.25;1.55;;;27.40;1.00;;;;;;6247123;23;20570;-92
2023/07/24 09:15:30;;;;;;;1.58;1.30;;;27.70;1.00;;;;;;6246949;23;20160;-91
2023/07/24 09:17:57;;;;;;;2.15;1.50;;;27.90;1.00;;;;;;6247032;23;20188;-91
2023/07/24 09:20:24;;;;;;;2.63;1.60;;;28.20;1.00;;;;;;6247049;23;20190;-92
2023/07/24 09:22:51;;;;;;;1.30;1.20;;;28.40;1.00;;;;;;6246608;23;20200;-93
2023/07/24 09:25:18;;;;;;;1.75;1.30;;;28.50;1.00;;;;;;6247087;23;20252;-94
2023/07/24 09:27:46;;;;;;;3.10;1.85;;;28.70;1.00;;;;;;6246917;23;20226;-93
2023/07/24 09:30:14;;;;;;;3.25;1.70;;;28.70;1.00;;;;;;6247342;23;20273;-93
2023/07/24 09:32:41;;;;;;;1.75;1.42;;;28.70;1.00;;;;;;6246651;23;20168;-92
2023/07/24 09:35:18;;;;;;;1.50;1.40;;;28.80;1.00;;;;;;6247014;23;20168;-94
2023/07/24 09:37:45;;;;;;;3.58;1.50;;;28.90;1.00;;;;;;6246801;23;20206;-91
2023/07/24 09:40:14;;;;;;;1.98;1.20;;;28.90;1.00;;;;;;6246892;23;20243;-93
2023/07/24 09:42:42;;;;;;;2.00;1.65;;;29.10;1.00;;;;;;6246613;23;20171;-92
2023/07/24 09:45:11;;;;;;;1.33;1.20;;;29.10;1.00;;;;;;6248023;23;20171;-92
2023/07/24 09:47:40;;;;;;;1.85;1.52;;;29.20;1.00;;;;;;6248669;23;20184;-93
2023/07/24 09:50:08;;;;;;;9.30;7.05;;;29.20;1.00;;;;;;6248638;23;20168;-93
2023/07/24 09:52:42;;;;;;;14.10;9.27;;;29.20;1.00;;;;;;6249233;23;20203;-93
2023/07/24 09:55:12;;;;;;;1.77;1.35;;;29.20;1.00;;;;;;6248364;23;20604;-94
2023/07/24 09:57:40;;;;;;;2.25;2.05;;;29.30;1.00;;;;;;6248638;23;20671;-93
2023/07/24 10:00:10;;;;;;;2.83;1.83;;;29.40;1.00;;;;;;6248327;22;20251;-93
2023/07/24 10:02:37;;;;;;;2.42;2.22;;;29.60;1.00;;;;;;6248598;23;20665;-93
2023/07/24 10:05:05;;;;;;;2.72;1.40;;;29.80;1.00;;;;;;6248832;23;20168;-92
2023/07/24 10:07:33;;;;;;;1.40;1.30;;;30.10;1.00;;;;;;6248503;23;20188;-93
2023/07/24 10:09:59;;;;;;;3.35;1.63;;;30.20;1.00;;;;;;6248119;23;20717;-93
2023/07/24 10:12:30;;;;;;;1.38;1.27;;;30.40;1.00;;;;;;6248361;23;20176;-93
2023/07/24 10:14:57;;;;;;;3.25;1.20;;;30.40;1.00;;;;;;6248545;23;20160;-92
2023/07/24 10:17:39;;;;;;;2.38;1.30;;;30.60;1.00;;;;;;6248663;23;20165;-92
2023/07/24 10:20:08;;;;;;;2.45;1.60;;;30.80;1.00;;;;;;6248607;23;20176;-93
2023/07/24 10:22:35;;;;;;;2.10;1.48;;;31.00;1.00;;;;;;6248943;23;20172;-92
2023/07/24 10:25:02;;;;;;;2.05;1.35;;;31.00;1.00;;;;;;6248430;23;20211;-93
2023/07/24 10:27:29;;;;;;;3.10;1.38;;;30.80;1.00;;;;;;6248579;23;20188;-92
2023/07/24 10:30:00;;;;;;;2.97;1.60;;;30.60;1.00;;;;;;6248667;23;20192;-93
2023/07/24 10:32:28;;;;;;;2.00;1.70;;;30.50;1.00;;;;;;6248696;23;20207;-93
2023/07/24 10:35:00;;;;;;;2.80;1.40;;;30.50;1.00;;;;;;6248637;23;20255;-92
2023/07/24 10:37:34;;;;;;;1.80;1.35;;;30.50;1.00;;;;;;6247783;23;20243;-93
2023/07/24 10:40:01;;;;;;;2.35;2.15;;;30.60;1.00;;;;;;6248666;23;20145;-92
2023/07/24 10:42:28;;;;;;;1.52;1.42;;;30.60;1.00;;;;;;6248470;23;20206;-92
2023/07/24 10:45:05;;;;;;;3.33;1.65;;;30.70;1.00;;;;;;6248305;23;20623;-93
2023/07/24 10:47:32;;;;;;;2.92;1.60;;;30.50;1.00;;;;;;6248486;23;20176;-93
2023/07/24 10:50:01;;;;;;;4.00;1.65;;;30.60;1.00;;;;;;6248665;23;20256;-92
2023/07/24 10:52:32;;;;;;;2.10;1.73;;;30.70;1.00;;;;;;6248403;23;20242;-92
2023/07/24 10:55:01;;;;;;;1.90;1.50;;;30.80;1.00;;;;;;6247806;23;20174;-93
2023/07/24 10:57:28;;;;;;;3.38;1.80;;;30.70;1.00;;;;;;6248032;23;20646;-92
2023/07/24 10:59:55;;;;;;;2.95;1.50;;;30.70;1.00;;;;;;6247978;22;20279;-94
2023/07/24 11:02:22;;;;;;;1.90;1.40;;;30.70;1.00;;;;;;6248121;23;20263;-94
2023/07/24 11:04:49;;;;;;;2.38;1.80;;;30.70;1.00;;;;;;6247997;23;20244;-94
2023/07/24 11:07:17;;;;;;;2.42;1.70;;;30.70;1.00;;;;;;6247823;23;20193;-94
2023/07/24 11:09:44;;;;;;;1.83;1.50;;;30.80;1.00;;;;;;6248385;23;20196;-94
2023/07/24 11:12:13;;;;;;;2.17;1.40;;;31.00;1.00;;;;;;6247937;23;20180;-93
2023/07/24 11:14:50;;;;;;;1.48;1.27;;;31.30;1.00;;;;;;6250220;23;20220;-94
2023/07/24 11:17:17;;;;;;;2.08;1.75;;;31.60;1.00;;;;;;6249041;23;20172;-93
2023/07/24 11:19:44;;;;;;;2.78;2.58;;;31.70;1.00;;;;;;6249188;23;20247;-94
2023/07/24 11:22:11;;;;;;;3.50;1.90;;;31.90;1.00;;;;;;6248983;23;20172;-95
2023/07/24 11:24:47;;;;;;;2.45;1.40;;;31.90;1.00;;;;;;6247525;23;20259;-94
2023/07/24 11:27:15;;;;;;;2.10;1.83;;;31.90;1.00;;;;;;6248544;23;20207;-94
2023/07/24 11:29:48;;;;;;;2.13;1.85;;;31.90;1.00;;;;;;6248387;23;20233;-93
2023/07/24 11:32:18;;;;;;;5.15;1.85;;;32.00;1.00;;;;;;6248151;23;20157;-95
2023/07/24 11:34:45;;;;;;;4.15;1.48;;;32.10;1.00;;;;;;6248189;23;20207;-95
2023/07/24 11:37:12;;;;;;;3.28;1.70;;;32.20;99.90;;;;;;6248105;23;20247;-95
2023/07/24 11:39:39;;;;;;;1.75;1.60;;;32.30;99.90;;;;;;6248077;23;20251;-94
2023/07/24 11:42:08;;;;;;;3.10;1.75;;;32.20;99.90;;;;;;6247645;23;20266;-94
2023/07/24 11:44:35;;;;;;;4.50;1.60;;;32.10;99.90;;;;;;6248576;23;20169;-94
2023/07/24 11:47:03;;;;;;;3.53;1.73;;;32.10;99.90;;;;;;6248371;23;20190;-95
2023/07/24 11:49:31;;;;;;;3.45;2.13;;;32.20;99.90;;;;;;6249558;23;20168;-93
2023/07/24 11:52:02;;;;;;;4.72;1.85;;;32.20;99.90;;;;;;6248505;23;20172;-94
2023/07/24 11:54:28;;;;;;;3.92;2.40;;;32.10;99.90;;;;;;6247179;23;20611;-94
2023/07/24 11:56:55;;;;;;;4.07;2.10;;;32.30;99.90;;;;;;6247242;23;20507;-93
2023/07/24 11:59:25;;;;;;;6.05;1.92;;;32.30;99.90;;;;;;6247476;22;20196;-94
2023/07/24 12:01:52;;;;;;;3.38;1.75;;;32.40;99.90;;;;;;6246876;23;20164;-93
2023/07/24 12:04:19;;;;;;;4.50;2.30;;;32.30;99.90;;;;;;6247553;23;20168;-94
2023/07/24 12:06:46;;;;;;;3.10;1.90;;;32.30;99.90;;;;;;6246805;23;20638;-94
2023/07/24 12:09:13;;;;;;;3.45;2.00;;;32.30;99.90;;;;;;6247177;23;20161;-94
2023/07/24 12:11:42;;;;;;;4.38;2.60;;;32.30;99.90;;;;;;6247767;23;20254;-94
2023/07/24 12:14:08;;;;;;;8.20;2.72;;;32.20;99.90;;;;;;6247544;23;20179;-93
2023/07/24 12:16:37;;;;;;;4.80;2.20;;;32.20;99.90;;;;;;6247551;23;20196;-93
2023/07/24 12:19:04;;;;;;;3.88;2.63;;;32.10;99.90;;;;;;6247321;23;20203;-95
2023/07/24 12:21:31;;;;;;;5.63;2.67;;;32.10;99.90;;;;;;6247529;23;20168;-94
2023/07/24 12:23:57;;;;;;;2.97;2.63;;;32.10;99.90;;;;;;6247859;23;20169;-94
2023/07/24 12:26:25;;;;;;;6.13;2.70;;;32.20;99.90;;;;;;6247363;23;20191;-93
2023/07/24 12:28:53;;;;;;;6.88;2.78;;;32.30;99.90;;;;;;6235128;23;20216;-94
2023/07/24 12:31:19;;;;;;;4.47;2.35;;;32.40;99.90;;;;;;6247285;23;20702;-92
2023/07/24 12:33:48;;;;;;;4.97;2.53;;;32.30;99.90;;;;;;6246989;23;20188;-94
2023/07/24 12:36:14;;;;;;;5.90;2.63;;;32.10;99.90;;;;;;6246996;23;20222;-94
2023/07/24 12:38:41;;;;;;;2.88;2.58;;;32.10;99.90;;;;;;6247007;23;20168;-94
2023/07/24 12:41:08;;;;;;;3.90;2.53;;;31.90;99.90;;;;;;6247167;23;20653;-95
2023/07/24 12:43:35;;;;;;;4.28;2.90;;;31.90;99.90;;;;;;6247001;23;20259;-94
2023/07/24 12:46:02;;;;;;;4.65;2.70;;;31.90;99.90;;;;;;6247142;23;20610;-94
2023/07/24 12:48:31;;;;;;;3.90;2.67;;;31.90;99.90;;;;;;6246824;23;20184;-94
2023/07/24 12:51:00;;;;;;;6.65;3.10;;;31.80;99.90;;;;;;6247128;23;20176;-95
2023/07/24 12:53:27;;;;;;;5.80;3.25;;;31.70;99.90;;;;;;6247182;23;20172;-93
2023/07/24 12:55:54;;;;;;;4.22;3.05;;;31.60;99.90;;;;;;6247521;23;20226;-94